sensor_id;sensor_type;location;lat;lon;timestamp;pressure;altitude;pressure_sealevel;temperature;humidity
17855;BME280;9053;53.358;6.382;2023-10-13T00:02:16;100933.16;;;16.04;100.00
17855;BME280;9053;53.358;6.382;2023-10-13T00:04:50;100922.59;;;16.05;100.00
17855;BME280;9053;53.358;6.382;2023-10-13T00:07:21;100928.78;;;16.07;100.00
17855;BME280;9053;53.358;6.382;2023-10-13T00:09:53;100912.91;;;16.09;100.00
17855;BME280;9053;53.358;6.382;2023-10-13T00:12:23;100912.00;;;16.10;100.00
17855;BME280;9053;53.358;6.382;2023-10-13T00:14:55;100897.00;;;16.12;100.00
17855;BME280;9053;53.358;6.382;2023-10-13T00:17:30;100897.91;;;16.14;100.00
17855;BME280;9053;53.358;6.382;2023-10-13T00:20:03;100890.88;;;16.16;100.00
17855;BME280;9053;53.358;6.382;2023-10-13T00:22:39;100883.81;;;16.16;100.00
17855;BME280;9053;53.358;6.382;2023-10-13T00:25:12;100885.56;;;16.17;100.00
17855;BME280;9053;53.358;6.382;2023-10-13T00:27:46;100881.19;;;16.18;100.00
17855;BME280;9053;53.358;6.382;2023-10-13T00:30:19;100879.41;;;16.20;100.00
17855;BME280;9053;53.358;6.382;2023-10-13T00:33:00;100875.91;;;16.22;100.00
17855;BME280;9053;53.358;6.382;2023-10-13T00:35:31;100888.31;;;16.23;100.00
17855;BME280;9053;53.358;6.382;2023-10-13T00:38:09;100886.53;;;16.24;100.00
17855;BME280;9053;53.358;6.382;2023-10-13T00:40:50;100889.22;;;16.26;100.00
17855;BME280;9053;53.358;6.382;2023-10-13T00:43:23;100883.06;;;16.28;100.00
17855;BME280;9053;53.358;6.382;2023-10-13T00:46:02;100878.63;;;16.29;100.00
17855;BME280;9053;53.358;6.382;2023-10-13T00:48:42;100874.22;;;16.29;100.00
17855;BME280;9053;53.358;6.382;2023-10-13T00:51:13;100875.97;;;16.30;100.00
17855;BME280;9053;53.358;6.382;2023-10-13T00:54:01;100875.16;;;16.34;100.00
17855;BME280;9053;53.358;6.382;2023-10-13T00:56:38;100876.03;;;16.35;100.00
17855;BME280;9053;53.358;6.382;2023-10-13T00:59:08;100873.41;;;16.36;100.00
17855;BME280;9053;53.358;6.382;2023-10-13T01:01:40;100869.91;;;16.39;100.00
17855;BME280;9053;53.358;6.382;2023-10-13T01:04:11;100848.69;;;16.40;100.00
17855;BME280;9053;53.358;6.382;2023-10-13T01:06:42;100849.56;;;16.42;100.00
17855;BME280;9053;53.358;6.382;2023-10-13T01:09:10;100850.47;;;16.44;100.00
17855;BME280;9053;53.358;6.382;2023-10-13T01:11:47;100847.81;;;16.44;100.00
17855;BME280;9053;53.358;6.382;2023-10-13T01:14:15;100844.34;;;16.49;100.00
17855;BME280;9053;53.358;6.382;2023-10-13T01:16:47;100838.13;;;16.50;100.00
17855;BME280;9053;53.358;6.382;2023-10-13T01:19:15;100830.22;;;16.51;100.00
17855;BME280;9053;53.358;6.382;2023-10-13T01:21:47;100822.25;;;16.54;100.00
17855;BME280;9053;53.358;6.382;2023-10-13T01:24:25;100828.47;;;16.56;100.00
17855;BME280;9053;53.358;6.382;2023-10-13T01:26:58;100823.19;;;16.59;100.00
17855;BME280;9053;53.358;6.382;2023-10-13T01:29:37;100817.03;;;16.62;100.00
17855;BME280;9053;53.358;6.382;2023-10-13T01:32:05;100812.63;;;16.64;100.00
17855;BME280;9053;53.358;6.382;2023-10-13T01:34:39;100815.31;;;16.69;100.00
17855;BME280;9053;53.358;6.382;2023-10-13T01:37:08;100806.50;;;16.71;100.00
17855;BME280;9053;53.358;6.382;2023-10-13T01:39:41;100798.53;;;16.74;100.00
17855;BME280;9053;53.358;6.382;2023-10-13T01:42:16;100796.81;;;16.78;100.00
17855;BME280;9053;53.358;6.382;2023-10-13T01:44:49;100783.59;;;16.81;100.00
17855;BME280;9053;53.358;6.382;2023-10-13T01:47:25;100782.72;;;16.85;100.00
17855;BME280;9053;53.358;6.382;2023-10-13T01:49:55;100776.53;;;16.87;100.00
17855;BME280;9053;53.358;6.382;2023-10-13T01:52:28;100772.13;;;16.90;100.00
17855;BME280;9053;53.358;6.382;2023-10-13T01:54:59;100776.59;;;16.94;100.00
17855;BME280;9053;53.358;6.382;2023-10-13T01:57:29;100761.53;;;16.94;100.00
17855;BME280;9053;53.358;6.382;2023-10-13T01:59:56;100761.56;;;16.99;100.00
17855;BME280;9053;53.358;6.382;2023-10-13T02:02:36;100746.50;;;17.01;100.00
17855;BME280;9053;53.358;6.382;2023-10-13T02:05:06;100748.31;;;17.03;100.00
17855;BME280;9053;53.358;6.382;2023-10-13T02:07:36;100743.00;;;17.05;100.00
17855;BME280;9053;53.358;6.382;2023-10-13T02:10:08;100735.03;;;17.08;100.00
17855;BME280;9053;53.358;6.382;2023-10-13T02:12:39;100745.69;;;17.11;100.00
17855;BME280;9053;53.358;6.382;2023-10-13T02:15:10;100733.28;;;17.13;100.00
17855;BME280;9053;53.358;6.382;2023-10-13T02:17:48;100737.72;;;17.16;100.00
17855;BME280;9053;53.358;6.382;2023-10-13T02:20:19;100738.63;;;17.18;100.00
17855;BME280;9053;53.358;6.382;2023-10-13T02:22:50;100735.09;;;17.20;100.00
17855;BME280;9053;53.358;6.382;2023-10-13T02:25:20;100736.00;;;17.22;100.00
17855;BME280;9053;53.358;6.382;2023-10-13T02:28:04;100730.69;;;17.25;100.00
17855;BME280;9053;53.358;6.382;2023-10-13T02:30:41;100717.44;;;17.27;100.00
17855;BME280;9053;53.358;6.382;2023-10-13T02:33:12;100713.00;;;17.29;100.00
17855;BME280;9053;53.358;6.382;2023-10-13T02:35:48;100718.31;;;17.30;100.00
17855;BME280;9053;53.358;6.382;2023-10-13T02:38:21;100706.81;;;17.32;100.00
17855;BME280;9053;53.358;6.382;2023-10-13T02:41:02;100702.38;;;17.34;100.00
17855;BME280;9053;53.358;6.382;2023-10-13T02:43:36;100700.63;;;17.34;100.00
17855;BME280;9053;53.358;6.382;2023-10-13T02:46:07;100689.97;;;17.36;100.00
17855;BME280;9053;53.358;6.382;2023-10-13T02:48:34;100686.47;;;17.37;100.00
17855;BME280;9053;53.358;6.382;2023-10-13T02:51:13;100688.25;;;17.39;100.00
17855;BME280;9053;53.358;6.382;2023-10-13T02:53:44;100682.91;;;17.39;100.00
17855;BME280;9053;53.358;6.382;2023-10-13T02:56:19;100680.25;;;17.39;100.00
17855;BME280;9053;53.358;6.382;2023-10-13T02:58:48;100675.81;;;17.40;100.00
17855;BME280;9053;53.358;6.382;2023-10-13T03:01:20;100680.25;;;17.41;100.00
17855;BME280;9053;53.358;6.382;2023-10-13T03:03:50;100665.19;;;17.43;100.00
17855;BME280;9053;53.358;6.382;2023-10-13T03:06:22;100672.31;;;17.44;100.00
17855;BME280;9053;53.358;6.382;2023-10-13T03:08:52;100666.09;;;17.45;100.00
17855;BME280;9053;53.358;6.382;2023-10-13T03:11:26;100659.88;;;17.46;100.00
17855;BME280;9053;53.358;6.382;2023-10-13T03:13:59;100652.81;;;17.48;100.00
17855;BME280;9053;53.358;6.382;2023-10-13T03:16:33;100653.69;;;17.48;100.00
17855;BME280;9053;53.358;6.382;2023-10-13T03:19:01;100645.72;;;17.48;100.00
17855;BME280;9053;53.358;6.382;2023-10-13T03:21:34;100643.06;;;17.50;100.00
17855;BME280;9053;53.358;6.382;2023-10-13T03:24:04;100636.84;;;17.51;100.00
17855;BME280;9053;53.358;6.382;2023-10-13T03:26:37;100638.66;;;17.52;100.00
17855;BME280;9053;53.358;6.382;2023-10-13T03:29:11;100631.56;;;17.54;100.00
17855;BME280;9053;53.358;6.382;2023-10-13T03:31:48;100628.88;;;17.56;100.00
17855;BME280;9053;53.358;6.382;2023-10-13T03:34:33;100624.47;;;17.58;100.00
17855;BME280;9053;53.358;6.382;2023-10-13T03:37:08;100612.06;;;17.60;100.00
17855;BME280;9053;53.358;6.382;2023-10-13T03:39:45;100606.72;;;17.61;100.00
17855;BME280;9053;53.358;6.382;2023-10-13T03:42:18;100604.09;;;17.63;100.00
17855;BME280;9053;53.358;6.382;2023-10-13T03:44:48;100596.13;;;17.64;100.00
17855;BME280;9053;53.358;6.382;2023-10-13T03:47:21;100588.16;;;17.64;100.00
17855;BME280;9053;53.358;6.382;2023-10-13T03:49:59;100589.00;;;17.66;100.00
17855;BME280;9053;53.358;6.382;2023-10-13T03:52:44;100581.94;;;17.67;100.00
17855;BME280;9053;53.358;6.382;2023-10-13T03:55:15;100572.19;;;17.67;100.00
17855;BME280;9053;53.358;6.382;2023-10-13T03:57:49;100570.41;;;17.68;100.00
17855;BME280;9053;53.358;6.382;2023-10-13T04:00:19;100556.22;;;17.67;100.00
17855;BME280;9053;53.358;6.382;2023-10-13T04:02:52;100544.72;;;17.67;100.00
17855;BME280;9053;53.358;6.382;2023-10-13T04:05:36;100548.25;;;17.69;100.00
17855;BME280;9053;53.358;6.382;2023-10-13T04:08:12;100541.16;;;17.69;100.00
17855;BME280;9053;53.358;6.382;2023-10-13T04:10:55;100520.78;;;17.70;100.00
17855;BME280;9053;53.358;6.382;2023-10-13T04:13:49;100525.19;;;17.71;100.00
17855;BME280;9053;53.358;6.382;2023-10-13T04:16:31;100520.78;;;17.71;100.00
17855;BME280;9053;53.358;6.382;2023-10-13T04:19:05;100516.34;;;17.70;100.00
17855;BME280;9053;53.358;6.382;2023-10-13T04:21:48;100501.25;;;17.71;100.00
17855;BME280;9053;53.358;6.382;2023-10-13T04:24:41;100490.63;;;17.71;100.00
17855;BME280;9053;53.358;6.382;2023-10-13T04:27:23;100480.88;;;17.70;100.00
17855;BME280;9053;53.358;6.382;2023-10-13T04:30:23;100476.44;;;17.73;100.00
17855;BME280;9053;53.358;6.382;2023-10-13T04:33:14;100472.91;;;17.74;100.00
17855;BME280;9053;53.358;6.382;2023-10-13T04:36:04;100459.59;;;17.74;100.00
17855;BME280;9053;53.358;6.382;2023-10-13T04:38:41;100455.16;;;17.75;100.00
17855;BME280;9053;53.358;6.382;2023-10-13T04:41:25;100440.09;;;17.76;100.00
17855;BME280;9053;53.358;6.382;2023-10-13T04:43:59;100427.69;;;17.74;100.00
17855;BME280;9053;53.358;6.382;2023-10-13T04:46:34;100424.13;;;17.76;100.00
17855;BME280;9053;53.358;6.382;2023-10-13T04:49:19;100425.91;;;17.77;100.00
17855;BME280;9053;53.358;6.382;2023-10-13T04:52:03;100420.56;;;17.78;100.00
17855;BME280;9053;53.358;6.382;2023-10-13T04:54:41;100417.03;;;17.78;100.00
17855;BME280;9053;53.358;6.382;2023-10-13T04:57:18;100410.81;;;17.79;100.00
17855;BME280;9053;53.358;6.382;2023-10-13T04:59:50;100397.50;;;17.79;100.00
17855;BME280;9053;53.358;6.382;2023-10-13T05:02:36;100402.84;;;17.79;100.00
17855;BME280;9053;53.358;6.382;2023-10-13T05:05:26;100404.66;;;17.80;100.00
17855;BME280;9053;53.358;6.382;2023-10-13T05:08:08;100380.69;;;17.78;100.00
17855;BME280;9053;53.358;6.382;2023-10-13T05:10:50;100387.78;;;17.78;100.00
17855;BME280;9053;53.358;6.382;2023-10-13T05:13:33;100401.97;;;17.78;100.00
17855;BME280;9053;53.358;6.382;2023-10-13T05:16:15;100370.03;;;17.78;100.00
17855;BME280;9053;53.358;6.382;2023-10-13T05:19:00;100350.53;;;17.76;100.00
17855;BME280;9053;53.358;6.382;2023-10-13T05:21:42;100350.53;;;17.76;100.00
17855;BME280;9053;53.358;6.382;2023-10-13T05:24:25;100334.56;;;17.76;100.00
17855;BME280;9053;53.358;6.382;2023-10-13T05:27:07;100340.81;;;17.75;100.00
17855;BME280;9053;53.358;6.382;2023-10-13T05:29:49;100340.78;;;17.73;100.00
17855;BME280;9053;53.358;6.382;2023-10-13T05:32:32;100337.25;;;17.74;100.00
17855;BME280;9053;53.358;6.382;2023-10-13T05:35:19;100330.16;;;17.75;100.00
17855;BME280;9053;53.358;6.382;2023-10-13T05:38:02;100323.94;;;17.76;100.00
17855;BME280;9053;53.358;6.382;2023-10-13T05:40:51;100313.31;;;17.74;100.00
17855;BME280;9053;53.358;6.382;2023-10-13T05:43:34;100303.56;;;17.77;100.00
17855;BME280;9053;53.358;6.382;2023-10-13T05:46:17;100320.44;;;17.74;100.00
17855;BME280;9053;53.358;6.382;2023-10-13T05:49:02;100309.78;;;17.72;100.00
17855;BME280;9053;53.358;6.382;2023-10-13T05:51:56;100304.47;;;17.71;100.00
17855;BME280;9053;53.358;6.382;2023-10-13T05:54:34;100304.47;;;17.71;100.00
17855;BME280;9053;53.358;6.382;2023-10-13T05:57:17;100294.72;;;17.70;100.00
17855;BME280;9053;53.358;6.382;2023-10-13T06:00:02;100292.97;;;17.69;100.00
17855;BME280;9053;53.358;6.382;2023-10-13T06:02:44;100291.19;;;17.69;100.00
17855;BME280;9053;53.358;6.382;2023-10-13T06:05:27;100280.53;;;17.66;100.00
17855;BME280;9053;53.358;6.382;2023-10-13T06:08:12;100279.69;;;17.64;100.00
17855;BME280;9053;53.358;6.382;2023-10-13T06:11:01;100285.91;;;17.60;100.00
17855;BME280;9053;53.358;6.382;2023-10-13T06:13:44;100267.28;;;17.59;100.00
17855;BME280;9053;53.358;6.382;2023-10-13T06:16:26;100272.63;;;17.56;100.00
17855;BME280;9053;53.358;6.382;2023-10-13T06:19:08;100259.34;;;17.54;100.00
17855;BME280;9053;53.358;6.382;2023-10-13T06:21:51;100263.75;;;17.53;100.00
17855;BME280;9053;53.358;6.382;2023-10-13T06:24:36;100261.09;;;17.53;100.00
17855;BME280;9053;53.358;6.382;2023-10-13T06:27:18;100258.47;;;17.50;100.00
17855;BME280;9053;53.358;6.382;2023-10-13T06:30:01;100254.91;;;17.50;100.00
17855;BME280;9053;53.358;6.382;2023-10-13T06:32:31;100250.50;;;17.49;100.00
17855;BME280;9053;53.358;6.382;2023-10-13T06:35:13;100245.19;;;17.47;100.00
17855;BME280;9053;53.358;6.382;2023-10-13T06:37:50;100239.88;;;17.49;100.00
17855;BME280;9053;53.358;6.382;2023-10-13T06:40:23;100238.09;;;17.48;100.00
17855;BME280;9053;53.358;6.382;2023-10-13T06:43:00;100236.31;;;17.50;100.00
17855;BME280;9053;53.358;6.382;2023-10-13T06:45:44;100238.97;;;17.48;100.00
17855;BME280;9053;53.358;6.382;2023-10-13T06:48:18;100229.22;;;17.50;100.00
17855;BME280;9053;53.358;6.382;2023-10-13T06:50:48;100235.44;;;17.49;100.00
17855;BME280;9053;53.358;6.382;2023-10-13T06:53:19;100239.84;;;17.52;100.00
17855;BME280;9053;53.358;6.382;2023-10-13T06:55:53;100223.94;;;17.49;100.00
17855;BME280;9053;53.358;6.382;2023-10-13T06:58:25;100242.50;;;17.50;100.00
17855;BME280;9053;53.358;6.382;2023-10-13T07:00:56;100238.06;;;17.52;100.00
17855;BME280;9053;53.358;6.382;2023-10-13T07:03:26;100245.16;;;17.57;100.00
17855;BME280;9053;53.358;6.382;2023-10-13T07:05:56;100238.94;;;17.56;100.00
17855;BME280;9053;53.358;6.382;2023-10-13T07:08:28;100250.47;;;17.57;100.00
17855;BME280;9053;53.358;6.382;2023-10-13T07:11:03;100240.69;;;17.59;100.00
17855;BME280;9053;53.358;6.382;2023-10-13T07:13:35;100231.81;;;17.61;100.00
17855;BME280;9053;53.358;6.382;2023-10-13T07:16:06;100229.16;;;17.63;100.00
17855;BME280;9053;53.358;6.382;2023-10-13T07:18:55;100225.59;;;17.65;100.00
17855;BME280;9053;53.358;6.382;2023-10-13T07:21:34;100220.28;;;17.67;100.00
17855;BME280;9053;53.358;6.382;2023-10-13T07:24:12;100217.59;;;17.68;100.00
17855;BME280;9053;53.358;6.382;2023-10-13T07:26:45;100220.25;;;17.68;100.00
17855;BME280;9053;53.358;6.382;2023-10-13T07:29:14;100226.47;;;17.70;100.00
17855;BME280;9053;53.358;6.382;2023-10-13T07:31:44;100207.84;;;17.70;100.00
17855;BME280;9053;53.358;6.382;2023-10-13T07:34:14;100211.38;;;17.71;100.00
17855;BME280;9053;53.358;6.382;2023-10-13T07:36:53;100208.72;;;17.71;100.00
17855;BME280;9053;53.358;6.382;2023-10-13T07:39:28;100214.97;;;17.71;100.00
17855;BME280;9053;53.358;6.382;2023-10-13T07:42:05;100210.50;;;17.70;100.00
17855;BME280;9053;53.358;6.382;2023-10-13T07:44:42;100214.03;;;17.71;100.00
17855;BME280;9053;53.358;6.382;2023-10-13T07:47:15;100200.75;;;17.72;100.00
17855;BME280;9053;53.358;6.382;2023-10-13T07:49:47;100200.75;;;17.74;100.00
17855;BME280;9053;53.358;6.382;2023-10-13T07:52:18;100187.47;;;17.74;100.00
17855;BME280;9053;53.358;6.382;2023-10-13T07:55:04;100172.41;;;17.71;100.00
17855;BME280;9053;53.358;6.382;2023-10-13T07:57:50;100145.81;;;17.68;100.00
17855;BME280;9053;53.358;6.382;2023-10-13T08:00:26;100138.75;;;17.67;100.00
17855;BME280;9053;53.358;6.382;2023-10-13T08:03:14;100120.13;;;17.66;100.00
17855;BME280;9053;53.358;6.382;2023-10-13T08:06:02;100136.97;;;17.63;100.00
17855;BME280;9053;53.358;6.382;2023-10-13T08:08:48;100134.34;;;17.60;100.00
17855;BME280;9053;53.358;6.382;2023-10-13T08:11:21;100116.63;;;17.61;100.00
17855;BME280;9053;53.358;6.382;2023-10-13T08:14:05;100123.72;;;17.62;100.00
17855;BME280;9053;53.358;6.382;2023-10-13T08:17:04;100125.47;;;17.63;100.00
17855;BME280;9053;53.358;6.382;2023-10-13T08:19:36;100118.41;;;17.60;100.00
17855;BME280;9053;53.358;6.382;2023-10-13T08:22:13;100106.84;;;17.61;100.00
17855;BME280;9053;53.358;6.382;2023-10-13T08:25:04;100090.00;;;17.64;100.00
17855;BME280;9053;53.358;6.382;2023-10-13T08:27:58;100078.47;;;17.66;100.00
17855;BME280;9053;53.358;6.382;2023-10-13T08:30:52;100080.25;;;17.67;100.00
17855;BME280;9053;53.358;6.382;2023-10-13T08:33:23;100070.47;;;17.68;100.00
17855;BME280;9053;53.358;6.382;2023-10-13T08:35:54;100059.84;;;17.68;100.00
17855;BME280;9053;53.358;6.382;2023-10-13T08:38:44;100057.16;;;17.72;100.00
17855;BME280;9053;53.358;6.382;2023-10-13T08:41:24;100052.75;;;17.71;100.00
17855;BME280;9053;53.358;6.382;2023-10-13T08:44:06;100048.28;;;17.75;100.00
17855;BME280;9053;53.358;6.382;2023-10-13T08:47:14;100046.47;;;17.79;100.00
17855;BME280;9053;53.358;6.382;2023-10-13T08:49:46;100049.16;;;17.80;100.00
17855;BME280;9053;53.358;6.382;2023-10-13T08:52:24;100037.59;;;17.83;100.00
17855;BME280;9053;53.358;6.382;2023-10-13T08:55:13;100012.75;;;17.85;100.00
17855;BME280;9053;53.358;6.382;2023-10-13T08:57:56;100030.47;;;17.88;100.00
17855;BME280;9053;53.358;6.382;2023-10-13T09:00:31;100016.25;;;17.90;100.00
17855;BME280;9053;53.358;6.382;2023-10-13T09:03:19;100036.63;;;17.93;100.00
17855;BME280;9053;53.358;6.382;2023-10-13T09:06:06;99982.50;;;17.95;100.00
17855;BME280;9053;53.358;6.382;2023-10-13T09:08:42;99995.78;;;17.99;100.00
17855;BME280;9053;53.358;6.382;2023-10-13T09:11:33;99985.09;;;18.03;100.00
17855;BME280;9053;53.358;6.382;2023-10-13T09:14:18;100018.75;;;18.07;100.00
17855;BME280;9053;53.358;6.382;2023-10-13T09:17:04;99985.88;;;18.11;100.00
17855;BME280;9053;53.358;6.382;2023-10-13T09:19:48;99968.13;;;18.13;100.00
17855;BME280;9053;53.358;6.382;2023-10-13T09:22:22;99964.53;;;18.17;100.00
17855;BME280;9053;53.358;6.382;2023-10-13T09:24:55;99976.91;;;18.22;100.00
17855;BME280;9053;53.358;6.382;2023-10-13T09:27:26;99975.06;;;18.27;100.00
17855;BME280;9053;53.358;6.382;2023-10-13T09:30:00;99972.34;;;18.34;100.00
17855;BME280;9053;53.358;6.382;2023-10-13T09:32:40;99965.16;;;18.41;100.00
17855;BME280;9053;53.358;6.382;2023-10-13T09:35:20;99971.25;;;18.52;100.00
17855;BME280;9053;53.358;6.382;2023-10-13T09:37:50;99957.78;;;18.62;100.00
17855;BME280;9053;53.358;6.382;2023-10-13T09:40:23;99953.25;;;18.70;100.00
17855;BME280;9053;53.358;6.382;2023-10-13T09:43:04;99939.88;;;18.76;100.00
17855;BME280;9053;53.358;6.382;2023-10-13T09:45:40;99952.16;;;18.85;100.00
17855;BME280;9053;53.358;6.382;2023-10-13T09:48:12;99960.03;;;18.95;100.00
17855;BME280;9053;53.358;6.382;2023-10-13T09:50:52;99953.72;;;19.02;100.00
17855;BME280;9053;53.358;6.382;2023-10-13T09:53:24;99945.63;;;19.09;100.00
17855;BME280;9053;53.358;6.382;2023-10-13T09:55:58;99945.56;;;19.12;100.00
17855;BME280;9053;53.358;6.382;2023-10-13T09:58:45;99917.09;;;19.15;100.00
17855;BME280;9053;53.358;6.382;2023-10-13T10:01:24;99938.38;;;19.17;100.00
17855;BME280;9053;53.358;6.382;2023-10-13T10:04:11;99926.81;;;19.18;100.00
17855;BME280;9053;53.358;6.382;2023-10-13T10:06:54;99940.16;;;19.18;100.00
17855;BME280;9053;53.358;6.382;2023-10-13T10:09:27;99932.09;;;19.21;100.00
17855;BME280;9053;53.358;6.382;2023-10-13T10:12:19;99932.03;;;19.24;100.00
17855;BME280;9053;53.358;6.382;2023-10-13T10:15:20;99934.66;;;19.27;100.00
17855;BME280;9053;53.358;6.382;2023-10-13T10:18:05;99907.91;;;19.33;100.00
17855;BME280;9053;53.358;6.382;2023-10-13T10:20:38;99916.78;;;19.34;100.00
17855;BME280;9053;53.358;6.382;2023-10-13T10:23:24;99912.25;;;19.39;100.00
17855;BME280;9053;53.358;6.382;2023-10-13T10:25:58;99898.03;;;19.38;100.00
17855;BME280;9053;53.358;6.382;2023-10-13T10:28:43;99900.66;;;19.41;100.00
17855;BME280;9053;53.358;6.382;2023-10-13T10:31:13;99899.72;;;19.42;100.00
17855;BME280;9053;53.358;6.382;2023-10-13T10:33:44;99896.13;;;19.46;100.00
17855;BME280;9053;53.358;6.382;2023-10-13T10:36:28;99887.16;;;19.51;100.00
17855;BME280;9053;53.358;6.382;2023-10-13T10:39:00;99887.91;;;19.59;100.00
17855;BME280;9053;53.358;6.382;2023-10-13T10:41:32;99879.84;;;19.62;100.00
17855;BME280;9053;53.358;6.382;2023-10-13T10:44:13;99864.66;;;19.67;100.00
17855;BME280;9053;53.358;6.382;2023-10-13T10:46:50;99857.44;;;19.72;100.00
17855;BME280;9053;53.358;6.382;2023-10-13T10:49:28;99852.03;;;19.77;100.00
17855;BME280;9053;53.358;6.382;2023-10-13T10:51:59;99863.47;;;19.83;100.00
17855;BME280;9053;53.358;6.382;2023-10-13T10:54:33;99857.06;;;19.91;100.00
17855;BME280;9053;53.358;6.382;2023-10-13T10:57:11;99865.88;;;19.96;100.00
17855;BME280;9053;53.358;6.382;2023-10-13T10:59:45;99855.97;;;20.02;100.00
17855;BME280;9053;53.358;6.382;2023-10-13T11:02:35;99850.50;;;20.08;100.00
17855;BME280;9053;53.358;6.382;2023-10-13T11:05:06;99844.22;;;20.11;100.00
17855;BME280;9053;53.358;6.382;2023-10-13T11:07:37;99845.97;;;20.12;100.00
17855;BME280;9053;53.358;6.382;2023-10-13T11:10:11;99839.66;;;20.16;100.00
17855;BME280;9053;53.358;6.382;2023-10-13T11:12:54;99838.75;;;20.17;100.00
17855;BME280;9053;53.358;6.382;2023-10-13T11:15:42;99836.84;;;20.22;100.00
17855;BME280;9053;53.358;6.382;2023-10-13T11:18:13;99834.94;;;20.29;100.00
17855;BME280;9053;53.358;6.382;2023-10-13T11:20:48;99828.59;;;20.33;100.00
17855;BME280;9053;53.358;6.382;2023-10-13T11:23:21;99831.16;;;20.38;100.00
17855;BME280;9053;53.358;6.382;2023-10-13T11:26:01;99814.19;;;20.40;100.00
17855;BME280;9053;53.358;6.382;2023-10-13T11:28:32;99830.16;;;20.43;100.00
17855;BME280;9053;53.358;6.382;2023-10-13T11:31:02;99831.06;;;20.44;100.00
17855;BME280;9053;53.358;6.382;2023-10-13T11:33:43;99834.63;;;20.43;100.00
17855;BME280;9053;53.358;6.382;2023-10-13T11:36:17;99815.94;;;20.43;100.00
17855;BME280;9053;53.358;6.382;2023-10-13T11:38:50;99817.69;;;20.44;100.00
17855;BME280;9053;53.358;6.382;2023-10-13T11:41:27;99815.03;;;20.44;100.00
17855;BME280;9053;53.358;6.382;2023-10-13T11:44:00;99812.31;;;20.45;100.00
17855;BME280;9053;53.358;6.382;2023-10-13T11:46:50;99808.66;;;20.49;100.00
17855;BME280;9053;53.358;6.382;2023-10-13T11:49:34;99804.16;;;20.51;100.00
17855;BME280;9053;53.358;6.382;2023-10-13T11:52:06;99813.00;;;20.55;100.00
17855;BME280;9053;53.358;6.382;2023-10-13T11:54:51;99815.66;;;20.57;100.00
17855;BME280;9053;53.358;6.382;2023-10-13T11:57:23;99801.38;;;20.58;100.00
17855;BME280;9053;53.358;6.382;2023-10-13T12:00:01;99818.28;;;20.58;100.00
17855;BME280;9053;53.358;6.382;2023-10-13T12:02:45;99821.09;;;20.50;100.00
17855;BME280;9053;53.358;6.382;2023-10-13T12:05:28;99818.88;;;20.30;100.00
17855;BME280;9053;53.358;6.382;2023-10-13T12:08:16;99809.47;;;20.13;100.00
17855;BME280;9053;53.358;6.382;2023-10-13T12:10:51;99796.44;;;19.99;100.00
17855;BME280;9053;53.358;6.382;2023-10-13T12:13:32;99787.88;;;19.83;100.00
17855;BME280;9053;53.358;6.382;2023-10-13T12:16:05;99804.97;;;19.73;100.00
17855;BME280;9053;53.358;6.382;2023-10-13T12:18:36;99803.34;;;19.65;100.00
17855;BME280;9053;53.358;6.382;2023-10-13T12:21:08;99795.34;;;19.64;100.00
17855;BME280;9053;53.358;6.382;2023-10-13T12:23:40;99793.56;;;19.63;100.00
17855;BME280;9053;53.358;6.382;2023-10-13T12:26:12;99795.38;;;19.62;100.00
17855;BME280;9053;53.358;6.382;2023-10-13T12:28:50;99795.34;;;19.64;100.00
17855;BME280;9053;53.358;6.382;2023-10-13T12:31:35;99827.31;;;19.67;100.00
17855;BME280;9053;53.358;6.382;2023-10-13T12:34:09;99819.31;;;19.69;100.00
17855;BME280;9053;53.358;6.382;2023-10-13T12:36:49;99802.34;;;19.71;100.00
17855;BME280;9053;53.358;6.382;2023-10-13T12:39:32;99824.56;;;19.72;100.00
17855;BME280;9053;53.358;6.382;2023-10-13T12:42:14;99826.38;;;19.70;100.00
17855;BME280;9053;53.358;6.382;2023-10-13T12:44:59;99827.34;;;19.64;100.00
17855;BME280;9053;53.358;6.382;2023-10-13T12:47:48;99783.84;;;19.60;100.00
17855;BME280;9053;53.358;6.382;2023-10-13T12:50:33;99783.19;;;19.51;100.00
17855;BME280;9053;53.358;6.382;2023-10-13T12:53:12;99793.94;;;19.46;100.00
17855;BME280;9053;53.358;6.382;2023-10-13T12:55:42;99801.06;;;19.44;100.00
17855;BME280;9053;53.358;6.382;2023-10-13T12:58:14;99810.00;;;19.43;100.00
17855;BME280;9053;53.358;6.382;2023-10-13T13:00:46;99811.81;;;19.39;100.00
17855;BME280;9053;53.358;6.382;2023-10-13T13:03:22;99796.81;;;19.35;100.00
17855;BME280;9053;53.358;6.382;2023-10-13T13:05:56;99804.81;;;19.34;100.00
17855;BME280;9053;53.358;6.382;2023-10-13T13:08:28;99786.16;;;19.34;100.00
17855;BME280;9053;53.358;6.382;2023-10-13T13:11:07;99782.66;;;19.30;100.00
17855;BME280;9053;53.358;6.382;2023-10-13T13:13:40;99782.69;;;19.29;100.00
17855;BME280;9053;53.358;6.382;2023-10-13T13:16:17;99784.53;;;19.25;100.00
17855;BME280;9053;53.358;6.382;2023-10-13T13:18:51;99773.88;;;19.25;100.00
17855;BME280;9053;53.358;6.382;2023-10-13T13:21:21;99771.19;;;19.25;100.00
17855;BME280;9053;53.358;6.382;2023-10-13T13:23:54;99758.78;;;19.24;100.00
17855;BME280;9053;53.358;6.382;2023-10-13T13:26:27;99766.78;;;19.24;100.00
17855;BME280;9053;53.358;6.382;2023-10-13T13:29:03;99752.59;;;19.22;100.00
17855;BME280;9053;53.358;6.382;2023-10-13T13:31:38;99746.50;;;19.17;100.00
17855;BME280;9053;53.358;6.382;2023-10-13T13:34:11;99749.19;;;19.15;100.00
17855;BME280;9053;53.358;6.382;2023-10-13T13:36:58;99744.81;;;19.13;100.00
17855;BME280;9053;53.358;6.382;2023-10-13T13:39:28;99757.28;;;19.11;100.00
17855;BME280;9053;53.358;6.382;2023-10-13T13:42:07;99739.50;;;19.10;100.00
17855;BME280;9053;53.358;6.382;2023-10-13T13:44:39;99732.44;;;19.09;100.00
17855;BME280;9053;53.358;6.382;2023-10-13T13:47:17;99742.22;;;19.08;100.00